createdAt,value
2023-05-24T00:00:41.238Z,16.15
2023-05-24T00:03:25.561Z,16.15
2023-05-24T00:05:54.062Z,16.13
2023-05-24T00:08:22.856Z,16.10
2023-05-24T00:10:51.225Z,16.08
2023-05-24T00:13:19.866Z,16.03
2023-05-24T00:15:48.777Z,15.96
2023-05-24T00:18:18.319Z,15.89
2023-05-24T00:20:46.450Z,15.86
2023-05-24T00:23:16.783Z,15.82
2023-05-24T00:25:45.595Z,15.80
2023-05-24T00:28:13.463Z,15.77
2023-05-24T00:30:42.180Z,15.73
2023-05-24T00:33:10.472Z,15.69
2023-05-24T00:35:38.460Z,15.68
2023-05-24T00:38:06.412Z,15.67
2023-05-24T00:40:34.424Z,15.65
2023-05-24T00:43:02.367Z,15.62
2023-05-24T00:45:32.378Z,15.61
2023-05-24T00:48:02.063Z,15.59
2023-05-24T00:50:31.028Z,15.59
2023-05-24T00:53:00.954Z,15.59
2023-05-24T00:55:30.219Z,15.60
2023-05-24T00:57:58.681Z,15.59
2023-05-24T01:00:27.652Z,15.59
2023-05-24T01:02:56.231Z,15.59
2023-05-24T01:05:25.242Z,15.59
2023-05-24T01:08:04.164Z,15.60
2023-05-24T01:10:35.055Z,15.60
2023-05-24T01:13:06.659Z,15.60
2023-05-24T01:15:47.171Z,15.59
2023-05-24T01:18:30.451Z,15.60
2023-05-24T01:21:06.939Z,15.61
2023-05-24T01:23:45.256Z,15.61
2023-05-24T01:26:33.364Z,15.61
2023-05-24T01:29:02.629Z,15.60
2023-05-24T01:31:33.676Z,15.58
2023-05-24T01:34:01.931Z,15.56
2023-05-24T01:36:30.531Z,15.54
2023-05-24T01:38:58.827Z,15.54
2023-05-24T01:41:47.314Z,15.53
2023-05-24T01:44:35.634Z,15.54
2023-05-24T01:47:19.540Z,15.55
2023-05-24T01:49:54.260Z,15.55
2023-05-24T01:52:27.998Z,15.56
2023-05-24T01:54:57.252Z,15.56
2023-05-24T01:57:27.039Z,15.56
2023-05-24T01:59:56.312Z,15.56
2023-05-24T02:02:26.862Z,15.55
2023-05-24T02:04:56.460Z,15.53
2023-05-24T02:07:25.030Z,15.51
2023-05-24T02:09:54.257Z,15.49
2023-05-24T02:12:23.691Z,15.46
2023-05-24T02:14:52.248Z,15.40
2023-05-24T02:17:20.374Z,15.36
2023-05-24T02:19:48.623Z,15.33
2023-05-24T02:22:17.999Z,15.32
2023-05-24T02:24:48.685Z,15.29
2023-05-24T02:27:17.603Z,15.24
2023-05-24T02:29:46.004Z,15.20
2023-05-24T02:32:14.787Z,15.18
2023-05-24T02:34:43.065Z,15.17
2023-05-24T02:37:14.884Z,15.16
2023-05-24T02:39:43.054Z,15.16
2023-05-24T02:42:12.474Z,15.13
2023-05-24T02:44:42.606Z,15.09
2023-05-24T02:47:10.857Z,15.05
2023-05-24T02:49:39.033Z,15.01
2023-05-24T02:52:07.560Z,15.00
2023-05-24T02:54:37.073Z,14.98
2023-05-24T02:57:09.567Z,14.97
2023-05-24T02:59:37.716Z,14.97
2023-05-24T03:02:05.827Z,14.97
2023-05-24T03:04:34.500Z,14.96
2023-05-24T03:07:03.733Z,14.96
2023-05-24T03:09:32.113Z,14.95
2023-05-24T03:12:00.755Z,14.94
2023-05-24T03:14:29.164Z,14.93
2023-05-24T03:16:57.860Z,14.92
2023-05-24T03:19:26.128Z,14.91
2023-05-24T03:21:54.260Z,14.88
2023-05-24T03:24:22.281Z,14.86
2023-05-24T03:26:51.774Z,14.82
2023-05-24T03:29:21.149Z,14.81
2023-05-24T03:31:51.814Z,14.80
2023-05-24T03:34:19.966Z,14.77
2023-05-24T03:36:48.988Z,14.75
2023-05-24T03:39:17.181Z,14.73
2023-05-24T03:41:55.854Z,14.73
2023-05-24T03:44:24.509Z,14.73
2023-05-24T03:46:52.582Z,14.72
2023-05-24T03:49:21.288Z,14.71
2023-05-24T03:51:49.791Z,14.70
2023-05-24T03:54:19.727Z,14.71
2023-05-24T03:56:47.728Z,14.69
2023-05-24T03:59:15.931Z,14.68
2023-05-24T04:01:44.795Z,14.68
2023-05-24T04:04:12.923Z,14.67
2023-05-24T04:06:42.417Z,14.67
2023-05-24T04:09:11.256Z,14.67
2023-05-24T04:11:40.414Z,14.67
2023-05-24T04:14:08.478Z,14.65
2023-05-24T04:16:39.853Z,14.64
2023-05-24T04:19:09.295Z,14.64
2023-05-24T04:21:37.875Z,14.64
2023-05-24T04:24:07.037Z,14.64
2023-05-24T04:26:35.121Z,14.63
2023-05-24T04:29:04.851Z,14.62
2023-05-24T04:31:34.554Z,14.62
2023-05-24T04:34:07.652Z,14.62
2023-05-24T04:36:36.177Z,14.62
2023-05-24T04:39:05.536Z,14.64
2023-05-24T04:41:36.075Z,14.65
2023-05-24T04:44:04.992Z,14.67
2023-05-24T04:46:36.729Z,14.67
2023-05-24T04:49:05.792Z,14.69
2023-05-24T04:51:34.623Z,14.69
2023-05-24T04:54:09.158Z,14.72
2023-05-24T04:56:38.826Z,14.74
2023-05-24T04:59:07.967Z,14.76
2023-05-24T05:01:36.485Z,14.78
2023-05-24T05:04:06.266Z,14.79
2023-05-24T05:06:38.979Z,14.81
2023-05-24T05:09:11.957Z,14.82
2023-05-24T05:11:41.184Z,14.85
2023-05-24T05:14:09.948Z,14.86
2023-05-24T05:16:38.610Z,14.88
2023-05-24T05:19:06.955Z,14.90
2023-05-24T05:21:35.061Z,14.92
2023-05-24T05:24:04.205Z,14.95
2023-05-24T05:26:33.516Z,14.97
2023-05-24T05:29:01.487Z,14.99
2023-05-24T05:31:29.849Z,15.03
2023-05-24T05:33:57.959Z,15.05
2023-05-24T05:36:26.302Z,15.09
2023-05-24T05:38:54.797Z,15.12
2023-05-24T05:41:22.794Z,15.17
2023-05-24T05:43:51.848Z,15.21
2023-05-24T05:46:22.404Z,15.25
2023-05-24T05:48:50.775Z,15.30
2023-05-24T05:51:18.885Z,15.34
2023-05-24T05:53:47.771Z,15.40
2023-05-24T05:56:16.311Z,15.44
2023-05-24T05:58:44.443Z,15.49
2023-05-24T06:01:13.669Z,15.54
2023-05-24T06:03:42.077Z,15.59
2023-05-24T06:06:10.917Z,15.64
2023-05-24T06:08:41.175Z,15.69
2023-05-24T06:11:10.764Z,15.75
2023-05-24T06:13:39.394Z,15.80
2023-05-24T06:16:10.429Z,15.85
2023-05-24T06:18:41.680Z,15.90
2023-05-24T06:21:11.982Z,15.95
2023-05-24T06:23:40.088Z,16.00
2023-05-24T06:26:10.935Z,16.06
2023-05-24T06:28:40.039Z,16.11
2023-05-24T06:31:08.267Z,16.18
2023-05-24T06:33:38.261Z,16.23
2023-05-24T06:36:07.438Z,16.29
2023-05-24T06:38:36.708Z,16.36
2023-05-24T06:41:04.805Z,16.42
2023-05-24T06:43:33.913Z,16.48
2023-05-24T06:46:02.395Z,16.54
2023-05-24T06:48:31.716Z,16.61
2023-05-24T06:51:00.736Z,16.66
2023-05-24T06:53:28.706Z,16.73
2023-05-24T06:55:57.836Z,16.80
2023-05-24T06:58:26.469Z,16.86
2023-05-24T07:00:55.825Z,16.93
2023-05-24T07:03:24.183Z,17.00
2023-05-24T07:05:52.727Z,17.06
2023-05-24T07:08:20.960Z,17.13
2023-05-24T07:10:49.636Z,17.19
2023-05-24T07:13:19.346Z,17.25
2023-05-24T07:15:47.586Z,17.32
2023-05-24T07:18:15.634Z,17.38
2023-05-24T07:20:44.211Z,17.44
2023-05-24T07:23:12.638Z,17.49
2023-05-24T07:25:41.199Z,17.55
2023-05-24T07:28:09.340Z,17.60
2023-05-24T07:30:38.850Z,17.65
2023-05-24T07:33:09.066Z,17.70
2023-05-24T07:35:37.187Z,17.75
2023-05-24T07:38:06.264Z,17.81
2023-05-24T07:40:34.257Z,17.85
2023-05-24T07:43:04.100Z,17.90
2023-05-24T07:45:32.939Z,17.95
2023-05-24T07:48:01.896Z,17.99
2023-05-24T07:50:30.464Z,18.04
2023-05-24T07:52:58.643Z,18.09
2023-05-24T07:55:28.272Z,18.13
2023-05-24T07:57:58.849Z,18.17
2023-05-24T08:00:28.059Z,18.22
2023-05-24T08:02:57.983Z,18.26
2023-05-24T08:05:26.213Z,18.30
2023-05-24T08:07:58.244Z,18.35
2023-05-24T08:10:27.185Z,18.38
2023-05-24T08:12:56.231Z,18.41
2023-05-24T08:15:24.889Z,18.45
2023-05-24T08:17:53.285Z,18.49
2023-05-24T08:20:21.462Z,18.53
2023-05-24T08:22:49.584Z,18.56
2023-05-24T08:25:17.870Z,18.60
2023-05-24T08:27:45.938Z,18.63
2023-05-24T08:30:18.010Z,18.68
2023-05-24T08:32:46.342Z,18.71
2023-05-24T08:37:46.105Z,18.79
2023-05-24T08:40:14.308Z,18.83
2023-05-24T08:42:42.920Z,18.86
2023-05-24T08:45:12.545Z,18.91
2023-05-24T08:47:42.743Z,18.95
2023-05-24T08:50:13.786Z,19.00
2023-05-24T08:52:44.214Z,19.04
2023-05-24T08:55:12.657Z,19.08
2023-05-24T08:57:41.810Z,19.13
2023-05-24T09:00:14.125Z,19.17
2023-05-24T09:02:44.473Z,19.22
2023-05-24T09:05:22.612Z,19.27
2023-05-24T09:07:53.508Z,19.32
2023-05-24T09:10:22.934Z,19.36
2023-05-24T09:12:58.286Z,19.41
2023-05-24T09:15:27.180Z,19.47
2023-05-24T09:17:56.161Z,19.51
2023-05-24T09:20:24.437Z,19.56
2023-05-24T09:22:58.462Z,19.60
2023-05-24T09:25:28.247Z,19.65
2023-05-24T09:27:56.689Z,19.70
2023-05-24T09:30:24.760Z,19.74
2023-05-24T09:33:00.017Z,19.79
2023-05-24T09:35:29.631Z,19.83
2023-05-24T09:38:00.482Z,19.88
2023-05-24T09:40:29.998Z,19.94
2023-05-24T09:43:11.746Z,19.99
2023-05-24T09:45:47.458Z,20.04
2023-05-24T09:48:20.974Z,20.10
2023-05-24T09:51:00.142Z,20.15
2023-05-24T09:53:28.756Z,20.21
2023-05-24T09:55:56.805Z,20.27
2023-05-24T09:58:29.214Z,20.32
2023-05-24T10:01:04.269Z,20.38
2023-05-24T10:03:32.421Z,20.43
2023-05-24T10:06:02.208Z,20.48
2023-05-24T10:08:31.656Z,20.54
2023-05-24T10:11:01.494Z,20.59
2023-05-24T10:13:29.760Z,20.65
2023-05-24T10:15:58.648Z,20.70
2023-05-24T10:18:26.710Z,20.76
2023-05-24T10:20:55.987Z,20.81
2023-05-24T10:23:24.877Z,20.85
2023-05-24T10:26:08.177Z,20.90
2023-05-24T10:28:38.992Z,20.95
2023-05-24T10:31:25.924Z,20.97
2023-05-24T10:36:45.408Z,20.96
2023-05-24T10:39:13.776Z,20.88
2023-05-24T10:41:42.307Z,20.74
2023-05-24T10:41:49.890Z,20.97
2023-05-24T10:44:12.308Z,20.62
2023-05-24T10:46:59.419Z,20.50
2023-05-24T10:49:27.480Z,20.34
2023-05-24T10:52:03.098Z,20.21
2023-05-24T10:54:31.628Z,20.12
2023-05-24T10:57:04.960Z,20.03
2023-05-24T10:59:38.271Z,19.98
2023-05-24T11:02:10.225Z,19.96
2023-05-24T11:04:57.869Z,19.94
2023-05-24T11:07:26.410Z,19.91
2023-05-24T11:09:59.922Z,19.87
2023-05-24T11:12:34.747Z,19.84
2023-05-24T11:15:03.858Z,19.79
2023-05-24T11:17:51.733Z,19.75
2023-05-24T11:20:21.178Z,19.72
2023-05-24T11:22:49.179Z,19.68
2023-05-24T11:25:18.545Z,19.64
2023-05-24T11:27:47.055Z,19.60
2023-05-24T11:30:16.616Z,19.55
2023-05-24T11:32:48.573Z,19.52
2023-05-24T11:35:19.362Z,19.48
2023-05-24T11:37:49.651Z,19.44
2023-05-24T11:40:18.239Z,19.39
2023-05-24T11:42:47.697Z,19.36
2023-05-24T11:45:18.684Z,19.32
2023-05-24T11:47:48.691Z,19.27
2023-05-24T11:50:45.884Z,19.25
2023-05-24T11:53:15.571Z,19.22
2023-05-24T11:55:43.986Z,19.20
2023-05-24T11:58:26.326Z,19.17
2023-05-24T12:00:54.386Z,19.14
2023-05-24T12:03:23.367Z,19.10
2023-05-24T12:05:53.007Z,19.06
2023-05-24T12:08:21.544Z,19.02
2023-05-24T12:10:50.772Z,18.99
2023-05-24T12:13:23.680Z,18.96
2023-05-24T12:15:56.599Z,18.95
2023-05-24T12:18:27.178Z,18.92
2023-05-24T12:20:56.016Z,18.90
2023-05-24T12:23:24.964Z,18.89
2023-05-24T12:26:00.217Z,18.87
2023-05-24T12:28:32.476Z,18.85
2023-05-24T12:31:00.630Z,18.85
2023-05-24T12:33:29.763Z,18.83
2023-05-24T12:35:58.803Z,18.83
2023-05-24T12:38:26.804Z,18.82
2023-05-24T12:41:11.552Z,18.83
2023-05-24T12:43:44.907Z,18.84
2023-05-24T12:46:13.870Z,18.84
2023-05-24T12:48:42.002Z,18.84
2023-05-24T12:51:11.935Z,18.86
2023-05-24T12:53:40.336Z,18.87
2023-05-24T12:56:08.823Z,18.89
2023-05-24T12:58:36.937Z,18.90
2023-05-24T13:01:05.024Z,18.91
2023-05-24T13:03:33.156Z,18.91
2023-05-24T13:06:02.142Z,18.94
2023-05-24T13:08:30.813Z,18.96
2023-05-24T13:10:58.833Z,18.98
2023-05-24T13:13:29.386Z,19.00
2023-05-24T13:15:57.790Z,19.02
2023-05-24T13:18:26.379Z,19.04
2023-05-24T13:20:54.501Z,19.08
2023-05-24T13:23:25.012Z,19.11
2023-05-24T13:25:54.112Z,19.13
2023-05-24T13:28:22.435Z,19.15
2023-05-24T13:30:51.021Z,19.16
2023-05-24T13:33:19.534Z,19.17
2023-05-24T13:35:48.279Z,19.20
2023-05-24T13:38:16.234Z,19.22
2023-05-24T13:40:46.540Z,19.24
2023-05-24T13:43:17.276Z,19.27
2023-05-24T13:45:45.879Z,19.30
2023-05-24T13:48:15.368Z,19.32
2023-05-24T13:50:45.107Z,19.34
2023-05-24T13:53:14.447Z,19.36
2023-05-24T13:55:42.727Z,19.38
2023-05-24T13:58:10.822Z,19.39
2023-05-24T14:00:39.320Z,19.39
2023-05-24T14:03:07.438Z,19.40
2023-05-24T14:05:35.508Z,19.41
2023-05-24T14:08:07.142Z,19.43
2023-05-24T14:10:37.183Z,19.45
2023-05-24T14:15:37.877Z,19.48
2023-05-24T14:18:08.881Z,19.49
2023-05-24T14:20:38.562Z,19.50
2023-05-24T14:23:08.185Z,19.52
2023-05-24T14:25:36.923Z,19.52
2023-05-24T14:28:05.588Z,19.54
2023-05-24T14:30:37.778Z,19.55
2023-05-24T14:33:08.712Z,19.57
2023-05-24T14:35:40.088Z,19.59
2023-05-24T14:38:10.390Z,19.60
2023-05-24T14:40:40.472Z,19.62
2023-05-24T14:43:10.961Z,19.62
2023-05-24T14:45:42.528Z,19.62
2023-05-24T14:48:11.854Z,19.62
2023-05-24T14:50:41.427Z,19.63
2023-05-24T14:53:12.754Z,19.65
2023-05-24T14:55:43.499Z,19.66
2023-05-24T14:58:12.788Z,19.69
2023-05-24T15:00:43.164Z,19.71
2023-05-24T15:03:13.167Z,19.73
2023-05-24T15:05:42.897Z,19.74
2023-05-24T15:08:11.919Z,19.76
2023-05-24T15:10:41.385Z,19.77
2023-05-24T15:13:10.374Z,19.79
2023-05-24T15:15:38.428Z,19.80
2023-05-24T15:18:07.103Z,19.81
2023-05-24T15:20:35.881Z,19.84
2023-05-24T15:23:05.135Z,19.84
2023-05-24T15:25:33.619Z,19.84
2023-05-24T15:28:02.472Z,19.85
2023-05-24T15:30:31.727Z,19.86
2023-05-24T15:32:59.928Z,19.87
2023-05-24T15:35:28.305Z,19.88
2023-05-24T15:37:56.195Z,19.88
2023-05-24T15:40:24.877Z,19.90
2023-05-24T15:42:53.688Z,19.90
2023-05-24T15:45:22.060Z,19.91
2023-05-24T15:47:50.809Z,19.90
2023-05-24T15:50:28.507Z,19.88
2023-05-24T15:53:04.524Z,19.87
2023-05-24T15:55:33.980Z,19.87
2023-05-24T15:58:02.999Z,19.87
2023-05-24T16:00:32.499Z,19.87
2023-05-24T16:03:00.697Z,19.87
2023-05-24T16:05:29.819Z,19.87
2023-05-24T16:07:58.650Z,19.88
2023-05-24T16:10:27.297Z,19.87
2023-05-24T16:12:56.150Z,19.87
2023-05-24T16:15:24.690Z,19.87
2023-05-24T16:17:52.795Z,19.86
2023-05-24T16:20:20.941Z,19.86
2023-05-24T16:22:49.870Z,19.86
2023-05-24T16:25:19.649Z,19.85
2023-05-24T16:27:48.434Z,19.85
2023-05-24T16:30:16.729Z,19.84
2023-05-24T16:32:46.403Z,19.84
2023-05-24T16:35:14.984Z,19.83
2023-05-24T16:37:43.388Z,19.83
2023-05-24T16:40:11.891Z,19.83
2023-05-24T16:42:39.892Z,19.83
2023-05-24T16:45:08.438Z,19.82
2023-05-24T16:47:36.811Z,19.80
2023-05-24T16:50:05.302Z,19.78
2023-05-24T16:52:33.474Z,19.76
2023-05-24T16:55:02.309Z,19.72
2023-05-24T16:57:31.286Z,19.71
2023-05-24T17:00:00.432Z,19.68
2023-05-24T17:02:28.418Z,19.66
2023-05-24T17:04:56.960Z,19.64
2023-05-24T17:07:25.529Z,19.62
2023-05-24T17:09:53.555Z,19.59
2023-05-24T17:12:22.655Z,19.56
2023-05-24T17:14:51.554Z,19.53
2023-05-24T17:17:20.372Z,19.51
2023-05-24T17:19:48.343Z,19.48
2023-05-24T17:22:16.366Z,19.46
2023-05-24T17:24:45.667Z,19.43
2023-05-24T17:27:14.087Z,19.42
2023-05-24T17:29:44.801Z,19.39
2023-05-24T17:32:12.929Z,19.36
2023-05-24T17:34:40.990Z,19.33
2023-05-24T17:37:08.849Z,19.29
2023-05-24T17:39:38.798Z,19.27
2023-05-24T17:42:07.480Z,19.24
2023-05-24T17:44:35.722Z,19.22
2023-05-24T17:47:04.660Z,19.19
2023-05-24T17:49:32.602Z,19.18
2023-05-24T17:52:01.130Z,19.16
2023-05-24T17:54:29.754Z,19.14
2023-05-24T17:56:57.987Z,19.12
2023-05-24T17:59:26.806Z,19.09
2023-05-24T18:01:54.964Z,19.08
2023-05-24T18:04:24.007Z,19.06
2023-05-24T18:06:52.318Z,19.03
2023-05-24T18:09:24.556Z,19.01
2023-05-24T18:11:53.049Z,19.00
2023-05-24T18:14:21.285Z,18.98
2023-05-24T18:16:50.198Z,18.96
2023-05-24T18:19:18.327Z,18.95
2023-05-24T18:21:47.006Z,18.94
2023-05-24T18:24:15.394Z,18.95
2023-05-24T18:26:46.458Z,18.95
2023-05-24T18:29:16.491Z,18.96
2023-05-24T18:31:44.526Z,18.95
2023-05-24T18:34:12.912Z,18.94
2023-05-24T18:36:41.279Z,18.93
2023-05-24T18:39:09.865Z,18.95
2023-05-24T18:41:37.909Z,18.96
2023-05-24T18:44:06.043Z,18.97
2023-05-24T18:46:36.368Z,18.99
2023-05-24T18:49:07.934Z,19.00
2023-05-24T18:51:37.971Z,19.01
2023-05-24T18:54:06.698Z,19.01
2023-05-24T18:56:34.738Z,19.02
2023-05-24T18:59:03.120Z,19.02
2023-05-24T19:01:30.996Z,18.99
2023-05-24T19:03:58.962Z,18.98
2023-05-24T19:06:27.304Z,18.98
2023-05-24T19:08:55.338Z,18.98
2023-05-24T19:11:23.981Z,18.99
2023-05-24T19:13:52.167Z,19.01
2023-05-24T19:16:20.865Z,19.01
2023-05-24T19:18:49.073Z,19.01
2023-05-24T19:21:17.824Z,19.01
2023-05-24T19:23:45.874Z,18.99
2023-05-24T19:26:18.103Z,18.96
2023-05-24T19:28:54.142Z,18.93
2023-05-24T19:31:30.208Z,18.92
2023-05-24T19:34:00.652Z,18.91
2023-05-24T19:36:30.790Z,18.90
2023-05-24T19:38:59.961Z,18.89
2023-05-24T19:41:28.042Z,18.87
2023-05-24T19:43:59.816Z,18.84
2023-05-24T19:46:29.101Z,18.83
2023-05-24T19:48:58.638Z,18.81
2023-05-24T19:51:26.690Z,18.80
2023-05-24T19:53:55.189Z,18.78
2023-05-24T19:56:23.913Z,18.75
2023-05-24T19:58:53.170Z,18.72
2023-05-24T20:01:21.739Z,18.68
2023-05-24T20:03:50.259Z,18.64
2023-05-24T20:06:18.670Z,18.57
2023-05-24T20:08:46.761Z,18.51
2023-05-24T20:11:17.819Z,18.45
2023-05-24T20:13:45.733Z,18.41
2023-05-24T20:16:14.368Z,18.37
2023-05-24T20:18:43.046Z,18.34
2023-05-24T20:21:13.125Z,18.30
2023-05-24T20:23:41.943Z,18.26
2023-05-24T20:26:09.899Z,18.22
2023-05-24T20:28:39.142Z,18.18
2023-05-24T20:31:08.380Z,18.15
2023-05-24T20:33:38.616Z,18.12
2023-05-24T20:36:08.190Z,18.11
2023-05-24T20:38:37.471Z,18.09
2023-05-24T20:41:05.613Z,18.06
2023-05-24T20:43:33.501Z,18.04
2023-05-24T20:46:01.914Z,17.99
2023-05-24T20:48:32.184Z,17.95
2023-05-24T20:51:01.486Z,17.88
2023-05-24T20:53:30.632Z,17.83
2023-05-24T20:55:59.624Z,17.76
2023-05-24T20:58:28.155Z,17.72
2023-05-24T21:00:56.584Z,17.69
2023-05-24T21:03:24.989Z,17.66
2023-05-24T21:05:53.182Z,17.63
2023-05-24T21:08:21.332Z,17.60
2023-05-24T21:10:50.438Z,17.58
2023-05-24T21:13:20.646Z,17.56
2023-05-24T21:15:50.859Z,17.54
2023-05-24T21:18:19.647Z,17.51
2023-05-24T21:20:48.106Z,17.48
2023-05-24T21:23:16.592Z,17.44
2023-05-24T21:25:45.200Z,17.42
2023-05-24T21:28:14.340Z,17.41
2023-05-24T21:30:42.363Z,17.41
2023-05-24T21:33:11.463Z,17.39
2023-05-24T21:35:39.484Z,17.38
2023-05-24T21:38:09.355Z,17.37
2023-05-24T21:40:37.758Z,17.36
2023-05-24T21:43:12.310Z,17.34
2023-05-24T21:45:44.123Z,17.34
2023-05-24T21:48:12.735Z,17.33
2023-05-24T21:50:40.781Z,17.32
2023-05-24T21:53:10.233Z,17.34
2023-05-24T21:55:38.490Z,17.34
2023-05-24T21:58:07.168Z,17.34
2023-05-24T22:00:35.971Z,17.33
2023-05-24T22:03:05.765Z,17.32
2023-05-24T22:05:34.253Z,17.31
2023-05-24T22:08:02.590Z,17.29
2023-05-24T22:10:31.036Z,17.27
2023-05-24T22:12:59.251Z,17.25
2023-05-24T22:15:28.632Z,17.24
2023-05-24T22:17:58.879Z,17.24
2023-05-24T22:20:27.824Z,17.23
2023-05-24T22:22:55.947Z,17.21
2023-05-24T22:25:24.422Z,17.20
2023-05-24T22:27:55.677Z,17.20
2023-05-24T22:30:24.076Z,17.19
2023-05-24T22:32:52.608Z,17.18
2023-05-24T22:35:20.731Z,17.17
2023-05-24T22:37:49.347Z,17.15
2023-05-24T22:40:18.205Z,17.14
2023-05-24T22:42:46.306Z,17.12
2023-05-24T22:45:14.155Z,17.11
2023-05-24T22:47:42.202Z,17.09
2023-05-24T22:50:12.330Z,17.08
2023-05-24T22:52:43.164Z,17.07
2023-05-24T22:55:12.346Z,17.06
2023-05-24T22:57:42.298Z,17.05
2023-05-24T23:00:11.976Z,17.03
2023-05-24T23:02:39.994Z,17.02
2023-05-24T23:05:09.716Z,17.01
2023-05-24T23:07:39.970Z,16.99
2023-05-24T23:10:09.458Z,16.99
2023-05-24T23:12:42.682Z,16.98
2023-05-24T23:15:16.746Z,16.98
2023-05-24T23:17:44.978Z,16.98
2023-05-24T23:20:14.620Z,16.99
2023-05-24T23:22:44.179Z,17.01
2023-05-24T23:25:12.252Z,17.04
2023-05-24T23:27:41.131Z,17.06
2023-05-24T23:30:10.312Z,17.09
2023-05-24T23:32:38.887Z,17.11
2023-05-24T23:35:07.086Z,17.14
2023-05-24T23:37:35.419Z,17.16
2023-05-24T23:40:06.647Z,17.18
2023-05-24T23:42:34.735Z,17.20
2023-05-24T23:45:02.941Z,17.22
2023-05-24T23:47:30.856Z,17.23
2023-05-24T23:49:58.849Z,17.25
2023-05-24T23:52:27.130Z,17.27
2023-05-24T23:54:55.670Z,17.29
2023-05-24T23:57:25.066Z,17.30
2023-05-24T23:59:54.089Z,17.31
